createdAt,value
2023-02-11T00:02:08.257Z,47.53
2023-02-11T00:04:35.173Z,47.38
2023-02-11T00:07:02.218Z,47.80
2023-02-11T00:09:31.764Z,47.70
2023-02-11T00:11:58.805Z,48.28
2023-02-11T00:14:25.898Z,47.55
2023-02-11T00:16:52.775Z,48.33
2023-02-11T00:19:21.129Z,47.97
2023-02-11T00:21:47.985Z,47.83
2023-02-11T00:24:14.810Z,47.72
2023-02-11T00:26:41.502Z,47.47
2023-02-11T00:29:09.907Z,47.72
2023-02-11T00:31:37.253Z,47.22
2023-02-11T00:34:05.545Z,47.63
2023-02-11T00:36:34.073Z,47.85
2023-02-11T00:39:01.094Z,47.83
2023-02-11T00:41:28.501Z,47.83
2023-02-11T00:43:55.457Z,48.05
2023-02-11T00:46:22.852Z,47.25
2023-02-11T00:48:51.837Z,47.65
2023-02-11T00:51:21.467Z,47.15
2023-02-11T00:53:49.756Z,47.88
2023-02-11T00:56:16.874Z,47.03
2023-02-11T00:58:44.000Z,47.38
2023-02-11T01:01:10.982Z,47.00
2023-02-11T01:03:37.901Z,46.97
2023-02-11T01:06:05.675Z,47.55
2023-02-11T01:08:32.586Z,47.60
2023-02-11T01:11:04.282Z,47.75
2023-02-11T01:13:34.029Z,47.50
2023-02-11T01:16:01.268Z,47.58
2023-02-11T01:18:28.501Z,47.60
2023-02-11T01:20:56.088Z,47.53
2023-02-11T01:23:23.813Z,47.45
2023-02-11T01:25:51.802Z,47.28
2023-02-11T01:28:21.858Z,47.35
2023-02-11T01:30:49.264Z,47.13
2023-02-11T01:33:16.847Z,47.00
2023-02-11T01:35:44.656Z,47.55
2023-02-11T01:38:16.450Z,46.95
2023-02-11T01:40:47.687Z,47.45
2023-02-11T01:43:14.643Z,47.45
2023-02-11T01:46:14.166Z,47.25
2023-02-11T01:48:44.115Z,46.75
2023-02-11T01:51:14.237Z,47.05
2023-02-11T01:54:01.174Z,47.00
2023-02-11T01:56:49.409Z,47.28
2023-02-11T01:59:20.629Z,47.20
2023-02-11T02:01:57.045Z,46.80
2023-02-11T02:04:31.428Z,47.15
2023-02-11T02:07:03.750Z,46.60
2023-02-11T02:09:36.881Z,46.55
2023-02-11T02:12:04.488Z,46.75
2023-02-11T02:14:31.634Z,46.55
2023-02-11T02:16:59.983Z,46.67
2023-02-11T02:19:58.762Z,47.03
2023-02-11T02:22:52.935Z,46.63
2023-02-11T02:25:48.161Z,46.40
2023-02-11T02:28:40.962Z,46.47
2023-02-11T02:31:27.261Z,46.75
2023-02-11T02:34:00.446Z,46.45
2023-02-11T02:36:34.709Z,46.40
2023-02-11T02:39:06.038Z,46.45
2023-02-11T02:41:35.704Z,46.70
2023-02-11T02:44:02.902Z,47.63
2023-02-11T02:46:32.063Z,46.97
2023-02-11T02:49:00.928Z,46.75
2023-02-11T02:51:45.633Z,47.50
2023-02-11T02:54:45.503Z,48.00
2023-02-11T02:57:28.797Z,47.92
2023-02-11T03:00:08.917Z,47.42
2023-02-11T03:02:46.251Z,47.42
2023-02-11T03:05:19.798Z,47.45
2023-02-11T03:07:55.484Z,47.90
2023-02-11T03:10:26.852Z,48.17
2023-02-11T03:12:56.464Z,47.28
2023-02-11T03:15:26.018Z,47.35
2023-02-11T03:17:56.668Z,48.08
2023-02-11T03:20:26.693Z,47.33
2023-02-11T03:22:58.143Z,47.58
2023-02-11T03:28:03.268Z,47.28
2023-02-11T03:30:34.911Z,47.55
2023-02-11T03:33:07.340Z,47.67
2023-02-11T03:35:41.605Z,47.63
2023-02-11T03:38:14.227Z,47.67
2023-02-11T03:40:43.642Z,47.60
2023-02-11T03:43:17.441Z,47.50
2023-02-11T03:45:46.087Z,47.25
2023-02-11T03:48:16.268Z,47.72
2023-02-11T03:50:46.701Z,47.38
2023-02-11T03:53:14.892Z,47.35
2023-02-11T03:55:43.970Z,46.95
2023-02-11T03:58:11.163Z,47.80
2023-02-11T04:00:41.104Z,47.70
2023-02-11T04:03:09.093Z,47.40
2023-02-11T04:05:35.974Z,47.67
2023-02-11T04:08:04.781Z,47.00
2023-02-11T04:10:31.619Z,48.35
2023-02-11T04:12:58.579Z,47.55
2023-02-11T04:15:25.717Z,47.95
2023-02-11T04:17:52.608Z,47.67
2023-02-11T04:20:19.769Z,47.65
2023-02-11T04:22:46.633Z,47.70
2023-02-11T04:25:14.968Z,48.25
2023-02-11T04:27:41.906Z,47.85
2023-02-11T04:30:09.754Z,47.97
2023-02-11T04:32:36.736Z,47.60
2023-02-11T04:35:04.144Z,48.15
2023-02-11T04:37:31.090Z,47.95
2023-02-11T04:39:57.971Z,47.65
2023-02-11T04:42:26.276Z,48.15
2023-02-11T04:44:53.125Z,48.17
2023-02-11T04:47:20.069Z,47.55
2023-02-11T04:49:46.932Z,48.00
2023-02-11T04:52:13.812Z,47.97
2023-02-11T04:54:40.942Z,47.83
2023-02-11T04:57:07.891Z,48.05
2023-02-11T04:59:36.087Z,48.83
2023-02-11T05:02:04.152Z,48.00
2023-02-11T05:04:31.074Z,47.97
2023-02-11T05:06:58.772Z,47.95
2023-02-11T05:09:25.717Z,48.13
2023-02-11T05:11:53.681Z,48.28
2023-02-11T05:14:20.774Z,48.28
2023-02-11T05:16:49.063Z,48.25
2023-02-11T05:19:15.947Z,48.50
2023-02-11T05:21:56.647Z,48.35
2023-02-11T05:24:27.368Z,48.15
2023-02-11T05:26:54.309Z,48.05
2023-02-11T05:29:21.201Z,48.20
2023-02-11T05:31:49.530Z,47.95
2023-02-11T05:34:16.393Z,49.13
2023-02-11T05:36:43.295Z,48.35
2023-02-11T05:39:10.106Z,48.25
2023-02-11T05:41:38.093Z,48.05
2023-02-11T05:44:04.995Z,49.00
2023-02-11T05:46:31.968Z,48.22
2023-02-11T05:49:00.252Z,48.05
2023-02-11T05:51:27.164Z,48.65
2023-02-11T05:53:54.181Z,48.10
2023-02-11T05:56:21.111Z,48.35
2023-02-11T05:58:47.971Z,48.13
2023-02-11T06:01:14.926Z,48.53
2023-02-11T06:03:41.900Z,48.55
2023-02-11T06:06:12.219Z,48.40
2023-02-11T06:08:39.669Z,48.22
2023-02-11T06:11:06.580Z,48.42
2023-02-11T06:13:33.427Z,48.28
2023-02-11T06:16:01.909Z,48.75
2023-02-11T06:18:29.514Z,48.53
2023-02-11T06:20:56.413Z,49.13
2023-02-11T06:23:24.659Z,48.08
2023-02-11T06:25:51.951Z,48.17
2023-02-11T06:28:19.313Z,48.38
2023-02-11T06:30:46.287Z,49.00
2023-02-11T06:33:13.190Z,48.50
2023-02-11T06:35:40.337Z,48.30
2023-02-11T06:38:07.252Z,48.53
2023-02-11T06:40:35.563Z,48.63
2023-02-11T06:43:02.398Z,48.30
2023-02-11T06:45:29.359Z,48.10
2023-02-11T06:47:56.257Z,48.17
2023-02-11T06:50:23.228Z,48.13
2023-02-11T06:52:50.113Z,48.40
2023-02-11T06:55:17.248Z,48.33
2023-02-11T06:57:45.477Z,48.65
2023-02-11T07:00:13.894Z,48.20
2023-02-11T07:02:40.776Z,47.92
2023-02-11T07:05:08.647Z,48.60
2023-02-11T07:07:35.749Z,48.50
2023-02-11T07:10:05.913Z,48.13
2023-02-11T07:12:32.980Z,47.40
2023-02-11T07:15:01.563Z,47.78
2023-02-11T07:17:28.492Z,48.45
2023-02-11T07:19:55.414Z,48.25
2023-02-11T07:22:22.333Z,49.05
2023-02-11T07:24:49.660Z,48.42
2023-02-11T07:27:16.508Z,48.35
2023-02-11T07:29:43.558Z,48.22
2023-02-11T07:32:11.861Z,48.63
2023-02-11T07:34:38.945Z,48.17
2023-02-11T07:37:06.147Z,48.30
2023-02-11T07:39:33.173Z,48.60
2023-02-11T07:42:00.190Z,48.92
2023-02-11T07:44:27.524Z,48.55
2023-02-11T07:46:54.473Z,48.55
2023-02-11T07:49:22.860Z,49.28
2023-02-11T07:51:51.427Z,48.33
2023-02-11T07:54:18.393Z,49.25
2023-02-11T07:56:45.314Z,48.53
2023-02-11T07:59:12.527Z,48.45
2023-02-11T08:01:39.404Z,48.78
2023-02-11T08:04:06.255Z,48.95
2023-02-11T08:06:35.822Z,48.97
2023-02-11T08:09:07.379Z,49.38
2023-02-11T08:11:34.332Z,48.75
2023-02-11T08:14:01.289Z,49.33
2023-02-11T08:16:30.550Z,48.92
2023-02-11T08:18:59.496Z,48.92
2023-02-11T08:21:27.101Z,48.97
2023-02-11T08:23:55.722Z,49.20
2023-02-11T08:26:24.419Z,49.35
2023-02-11T08:28:52.977Z,49.25
2023-02-11T08:31:21.719Z,49.33
2023-02-11T08:33:49.282Z,48.97
2023-02-11T08:36:19.567Z,48.92
2023-02-11T08:38:46.522Z,48.88
2023-02-11T08:41:15.659Z,49.33
2023-02-11T08:43:43.902Z,48.65
2023-02-11T08:46:13.269Z,49.70
2023-02-11T08:48:40.430Z,49.38
2023-02-11T08:51:08.565Z,49.60
2023-02-11T08:53:35.845Z,49.30
2023-02-11T08:56:03.223Z,49.72
2023-02-11T08:58:31.501Z,49.45
2023-02-11T09:00:58.481Z,49.30
2023-02-11T09:03:25.564Z,49.72
2023-02-11T09:05:56.978Z,49.55
2023-02-11T09:08:23.852Z,49.20
2023-02-11T09:10:50.969Z,48.95
2023-02-11T09:13:17.972Z,50.25
2023-02-11T09:15:46.926Z,49.72
2023-02-11T09:18:15.029Z,49.55
2023-02-11T09:20:42.290Z,49.47
2023-02-11T09:23:10.533Z,49.47
2023-02-11T09:25:39.296Z,49.80
2023-02-11T09:28:06.175Z,49.38
2023-02-11T09:30:33.452Z,49.72
2023-02-11T09:33:01.750Z,49.90
2023-02-11T09:35:28.739Z,50.03
2023-02-11T09:37:56.162Z,49.78
2023-02-11T09:40:23.474Z,49.67
2023-02-11T09:42:53.774Z,49.78
2023-02-11T09:45:24.256Z,49.40
2023-02-11T09:47:55.587Z,49.43
2023-02-11T09:52:59.269Z,49.05
2023-02-11T09:57:55.659Z,49.20
2023-02-11T10:00:26.096Z,49.00
2023-02-11T10:03:08.795Z,48.97
2023-02-11T10:05:56.410Z,49.33
2023-02-11T10:08:35.912Z,49.42
2023-02-11T10:11:08.688Z,49.17
2023-02-11T10:13:48.955Z,49.78
2023-02-11T10:16:30.186Z,49.40
2023-02-11T10:19:11.331Z,49.17
2023-02-11T10:21:50.593Z,49.10
2023-02-11T10:24:18.414Z,49.58
2023-02-11T10:26:46.152Z,49.47
2023-02-11T10:29:31.203Z,49.53
2023-02-11T10:32:00.400Z,49.72
2023-02-11T10:34:27.381Z,49.17
2023-02-11T10:36:55.647Z,50.03
2023-02-11T10:39:25.678Z,50.60
2023-02-11T10:41:57.024Z,49.83
2023-02-11T10:46:55.663Z,49.47
2023-02-11T10:49:35.431Z,49.75
2023-02-11T10:52:20.249Z,49.65
2023-02-11T10:54:58.573Z,49.38
2023-02-11T10:57:30.082Z,49.72
2023-02-11T11:00:04.482Z,49.35
2023-02-11T11:02:35.305Z,49.10
2023-02-11T11:05:06.120Z,49.25
2023-02-11T11:07:35.192Z,49.45
2023-02-11T11:10:04.228Z,49.40
2023-02-11T11:12:35.210Z,49.13
2023-02-11T11:15:16.643Z,50.15
2023-02-11T11:20:22.014Z,49.00
2023-02-11T11:22:52.897Z,49.42
2023-02-11T11:25:25.782Z,48.95
2023-02-11T11:27:55.892Z,49.13
2023-02-11T11:30:26.453Z,48.60
2023-02-11T11:32:53.732Z,49.22
2023-02-11T11:35:27.374Z,48.97
2023-02-11T11:38:01.365Z,48.40
2023-02-11T11:40:30.814Z,48.55
2023-02-11T11:43:15.263Z,48.88
2023-02-11T11:45:54.578Z,48.30
2023-02-11T11:48:26.487Z,48.75
2023-02-11T11:50:56.316Z,48.45
2023-02-11T11:53:31.430Z,48.70
2023-02-11T11:56:02.586Z,48.10
2023-02-11T11:58:30.756Z,48.38
2023-02-11T12:01:05.321Z,48.55
2023-02-11T12:03:58.040Z,48.55
2023-02-11T12:06:35.650Z,48.35
2023-02-11T12:09:15.494Z,48.50
2023-02-11T12:12:01.996Z,48.78
2023-02-11T12:14:39.230Z,48.35
2023-02-11T12:17:16.222Z,48.58
2023-02-11T12:19:54.985Z,48.45
2023-02-11T12:22:33.386Z,48.10
2023-02-11T12:25:18.758Z,48.70
2023-02-11T12:27:54.386Z,48.25
2023-02-11T12:30:34.546Z,47.88
2023-02-11T12:33:08.466Z,48.47
2023-02-11T12:35:47.334Z,48.65
2023-02-11T12:38:40.606Z,48.10
2023-02-11T12:41:43.213Z,48.25
2023-02-11T12:44:16.708Z,47.97
2023-02-11T12:46:50.129Z,48.03
2023-02-11T12:50:00.736Z,47.95
2023-02-11T12:52:41.575Z,48.15
2023-02-11T12:55:15.160Z,48.13
2023-02-11T12:57:46.438Z,48.55
2023-02-11T13:00:18.452Z,48.17
2023-02-11T13:02:54.323Z,48.00
2023-02-11T13:05:28.629Z,48.13
2023-02-11T13:08:03.239Z,48.08
2023-02-11T13:10:33.998Z,48.38
2023-02-11T13:13:19.182Z,48.05
2023-02-11T13:15:50.627Z,47.78
2023-02-11T13:18:30.277Z,47.95
2023-02-11T13:21:08.555Z,47.83
2023-02-11T13:23:44.630Z,48.03
2023-02-11T13:26:19.704Z,48.05
2023-02-11T13:28:54.623Z,48.05
2023-02-11T13:31:21.763Z,47.75
2023-02-11T13:33:49.641Z,47.92
2023-02-11T13:36:24.887Z,48.10
2023-02-11T13:38:58.591Z,47.70
2023-02-11T13:41:38.813Z,47.78
2023-02-11T13:44:23.944Z,47.78
2023-02-11T13:47:02.347Z,47.95
2023-02-11T13:49:33.458Z,48.08
2023-02-11T13:52:02.975Z,47.85
2023-02-11T13:54:34.471Z,47.53
2023-02-11T13:57:29.614Z,47.70
2023-02-11T14:00:00.164Z,47.67
2023-02-11T14:02:50.270Z,47.40
2023-02-11T14:05:53.801Z,47.80
2023-02-11T14:08:41.982Z,47.95
2023-02-11T14:11:55.409Z,47.83
2023-02-11T14:14:24.663Z,47.17
2023-02-11T14:17:31.032Z,47.67
2023-02-11T14:19:58.877Z,47.28
2023-02-11T14:22:29.560Z,47.45
2023-02-11T14:25:00.839Z,47.10
2023-02-11T14:30:15.012Z,47.47
2023-02-11T14:33:00.582Z,48.08
2023-02-11T14:35:36.171Z,47.08
2023-02-11T14:38:10.617Z,47.15
2023-02-11T14:40:47.964Z,47.08
2023-02-11T14:43:19.888Z,47.10
2023-02-11T14:45:52.145Z,47.50
2023-02-11T14:48:26.263Z,47.30
2023-02-11T14:50:58.794Z,47.42
2023-02-11T14:53:28.413Z,47.47
2023-02-11T14:55:55.796Z,47.85
2023-02-11T14:58:24.801Z,47.40
2023-02-11T15:00:55.317Z,46.95
2023-02-11T15:03:32.841Z,47.22
2023-02-11T15:06:01.741Z,47.15
2023-02-11T15:08:30.694Z,47.47
2023-02-11T15:10:58.779Z,47.10
2023-02-11T15:13:31.073Z,47.25
2023-02-11T15:16:02.142Z,47.38
2023-02-11T15:18:36.431Z,47.50
2023-02-11T15:21:04.686Z,46.92
2023-02-11T15:23:32.133Z,46.75
2023-02-11T15:26:03.310Z,47.45
2023-02-11T15:28:32.950Z,47.42
2023-02-11T15:31:02.794Z,47.45
2023-02-11T15:33:31.995Z,47.03
2023-02-11T15:36:02.073Z,47.25
2023-02-11T15:38:32.538Z,47.42
2023-02-11T15:41:02.105Z,46.90
2023-02-11T15:43:42.206Z,47.08
2023-02-11T15:46:11.287Z,47.03
2023-02-11T15:48:42.725Z,47.05
2023-02-11T15:53:49.966Z,46.78
2023-02-11T15:56:24.276Z,47.17
2023-02-11T15:58:54.532Z,47.20
2023-02-11T16:01:31.807Z,47.13
2023-02-11T16:04:01.198Z,46.83
2023-02-11T16:06:39.307Z,47.03
2023-02-11T16:09:23.105Z,46.92
2023-02-11T16:11:58.869Z,47.03
2023-02-11T16:14:31.777Z,47.47
2023-02-11T16:17:02.288Z,47.22
2023-02-11T16:19:30.451Z,47.10
2023-02-11T16:22:01.015Z,47.25
2023-02-11T16:24:31.879Z,47.10
2023-02-11T16:27:00.903Z,47.28
2023-02-11T16:29:29.353Z,47.00
2023-02-11T16:32:07.693Z,47.25
2023-02-11T16:34:34.946Z,47.17
2023-02-11T16:37:05.636Z,47.30
2023-02-11T16:39:32.930Z,47.35
2023-02-11T16:42:00.533Z,47.55
2023-02-11T16:44:27.492Z,47.05
2023-02-11T16:46:54.967Z,47.00
2023-02-11T16:49:24.612Z,46.67
2023-02-11T16:51:53.137Z,47.13
2023-02-11T16:54:21.532Z,47.28
2023-02-11T16:56:48.828Z,46.85
2023-02-11T16:59:16.098Z,46.85
2023-02-11T17:01:44.691Z,47.40
2023-02-11T17:04:16.714Z,46.67
2023-02-11T17:06:43.857Z,46.92
2023-02-11T17:09:17.870Z,46.95
2023-02-11T17:11:46.914Z,46.92
2023-02-11T17:14:14.088Z,46.90
2023-02-11T17:16:41.988Z,46.47
2023-02-11T17:19:12.371Z,46.65
2023-02-11T17:21:41.570Z,46.50
2023-02-11T17:24:08.567Z,46.72
2023-02-11T17:26:37.047Z,46.65
2023-02-11T17:29:07.047Z,47.03
2023-02-11T17:31:35.033Z,46.67
2023-02-11T17:34:02.478Z,46.72
2023-02-11T17:36:31.376Z,46.65
2023-02-11T17:38:58.830Z,46.47
2023-02-11T17:41:26.219Z,47.08
2023-02-11T17:43:53.754Z,46.55
2023-02-11T17:46:22.085Z,46.95
2023-02-11T17:48:49.151Z,46.60
2023-02-11T17:51:22.996Z,47.17
2023-02-11T17:53:50.087Z,46.65
2023-02-11T17:56:17.167Z,46.88
2023-02-11T17:58:44.361Z,46.88
2023-02-11T18:01:11.870Z,46.55
2023-02-11T18:03:40.143Z,47.00
2023-02-11T18:06:07.914Z,47.00
2023-02-11T18:08:34.928Z,46.95
2023-02-11T18:11:02.288Z,46.75
2023-02-11T18:13:29.736Z,46.63
2023-02-11T18:16:02.939Z,46.45
2023-02-11T18:18:30.164Z,47.42
2023-02-11T18:20:59.233Z,46.75
2023-02-11T18:23:27.268Z,46.83
2023-02-11T18:25:54.236Z,46.85
2023-02-11T18:28:24.891Z,46.60
2023-02-11T18:30:57.416Z,46.67
2023-02-11T18:33:24.861Z,46.88
2023-02-11T18:35:52.282Z,46.47
2023-02-11T18:38:22.387Z,46.53
2023-02-11T18:40:50.674Z,46.55
2023-02-11T18:43:17.896Z,46.50
2023-02-11T18:45:45.485Z,46.58
2023-02-11T18:48:13.070Z,46.53
2023-02-11T18:50:40.603Z,46.72
2023-02-11T18:53:07.578Z,46.75
2023-02-11T18:55:37.700Z,46.95
2023-02-11T18:58:04.693Z,46.60
2023-02-11T19:00:34.980Z,46.40
2023-02-11T19:03:02.194Z,46.30
2023-02-11T19:05:33.286Z,46.85
2023-02-11T19:08:00.748Z,46.03
2023-02-11T19:10:28.216Z,47.00
2023-02-11T19:12:58.898Z,46.65
2023-02-11T19:15:26.404Z,46.80
2023-02-11T19:17:54.491Z,46.80
2023-02-11T19:20:21.430Z,47.00
2023-02-11T19:22:48.390Z,46.63
2023-02-11T19:25:15.640Z,46.75
2023-02-11T19:27:42.711Z,46.63
2023-02-11T19:30:11.845Z,46.75
2023-02-11T19:32:38.818Z,46.75
2023-02-11T19:35:06.470Z,46.65
2023-02-11T19:37:33.573Z,46.58
2023-02-11T19:40:03.906Z,46.50
2023-02-11T19:42:30.848Z,46.85
2023-02-11T19:44:57.689Z,46.83
2023-02-11T19:47:27.862Z,46.85
2023-02-11T19:49:55.284Z,46.95
2023-02-11T19:52:22.133Z,46.65
2023-02-11T19:54:49.212Z,46.58
2023-02-11T19:57:16.164Z,47.08
2023-02-11T19:59:43.158Z,46.97
2023-02-11T20:02:10.414Z,46.78
2023-02-11T20:04:39.131Z,47.25
2023-02-11T20:07:06.306Z,47.15
2023-02-11T20:09:33.323Z,47.20
2023-02-11T20:12:00.716Z,47.15
2023-02-11T20:14:28.164Z,46.83
2023-02-11T20:16:55.229Z,47.30
2023-02-11T20:19:22.523Z,47.38
2023-02-11T20:21:52.315Z,47.50
2023-02-11T20:24:19.925Z,47.35
2023-02-11T20:26:48.837Z,46.97
2023-02-11T20:29:16.478Z,47.28
2023-02-11T20:31:43.541Z,47.22
2023-02-11T20:34:12.064Z,47.67
2023-02-11T20:36:40.398Z,47.45
2023-02-11T20:39:08.821Z,47.25
2023-02-11T20:41:36.794Z,47.55
2023-02-11T20:44:05.419Z,47.22
2023-02-11T20:46:34.592Z,47.15
2023-02-11T20:49:02.302Z,47.40
2023-02-11T20:51:31.159Z,47.55
2023-02-11T20:53:58.698Z,47.65
2023-02-11T20:56:28.823Z,47.38
2023-02-11T20:58:59.734Z,47.47
2023-02-11T21:01:29.118Z,47.22
2023-02-11T21:03:57.812Z,47.45
2023-02-11T21:06:26.860Z,47.45
2023-02-11T21:08:53.818Z,47.05
2023-02-11T21:11:20.792Z,47.42
2023-02-11T21:13:49.574Z,47.58
2023-02-11T21:16:20.453Z,47.42
2023-02-11T21:18:48.180Z,47.63
2023-02-11T21:21:15.166Z,47.17
2023-02-11T21:23:42.042Z,47.20
2023-02-11T21:26:09.306Z,47.55
2023-02-11T21:28:40.517Z,47.08
2023-02-11T21:31:09.957Z,47.40
2023-02-11T21:33:36.932Z,47.38
2023-02-11T21:36:07.789Z,47.00
2023-02-11T21:38:34.945Z,47.05
2023-02-11T21:41:06.002Z,47.35
2023-02-11T21:43:33.707Z,47.15
2023-02-11T21:46:01.108Z,47.90
2023-02-11T21:48:29.422Z,47.38
2023-02-11T21:50:56.298Z,47.20
2023-02-11T21:53:23.210Z,47.42
2023-02-11T21:55:51.329Z,47.85
2023-02-11T21:58:18.236Z,47.47
2023-02-11T22:00:45.138Z,47.17
2023-02-11T22:03:12.621Z,47.30
2023-02-11T22:05:41.411Z,47.45
2023-02-11T22:08:08.361Z,47.65
2023-02-11T22:10:35.167Z,47.40
2023-02-11T22:13:02.026Z,47.20
2023-02-11T22:15:28.910Z,46.95
2023-02-11T22:17:55.801Z,47.53
2023-02-11T22:20:23.072Z,47.13
2023-02-11T22:22:51.325Z,47.50
2023-02-11T22:25:18.456Z,47.55
2023-02-11T22:27:45.278Z,46.75
2023-02-11T22:30:13.192Z,47.17
2023-02-11T22:32:40.016Z,47.42
2023-02-11T22:35:07.105Z,47.03
2023-02-11T22:37:33.941Z,47.30
2023-02-11T22:40:02.312Z,47.55
2023-02-11T22:42:29.142Z,47.00
2023-02-11T22:44:56.020Z,46.70
2023-02-11T22:47:22.852Z,46.78
2023-02-11T22:49:49.793Z,46.85
2023-02-11T22:52:16.777Z,47.40
2023-02-11T22:54:43.740Z,47.50
2023-02-11T22:57:11.965Z,47.33
2023-02-11T22:59:38.842Z,46.95
2023-02-11T23:02:05.847Z,47.25
2023-02-11T23:04:32.742Z,46.97
2023-02-11T23:06:59.563Z,47.42
2023-02-11T23:09:26.457Z,47.40
2023-02-11T23:11:54.454Z,47.90
2023-02-11T23:14:22.737Z,47.45
2023-02-11T23:16:51.203Z,47.58
2023-02-11T23:19:18.175Z,47.72
2023-02-11T23:21:45.076Z,47.08
2023-02-11T23:24:14.053Z,47.38
2023-02-11T23:26:42.488Z,47.75
2023-02-11T23:29:10.389Z,47.78
2023-02-11T23:31:43.366Z,48.00
2023-02-11T23:34:10.420Z,48.00
2023-02-11T23:36:37.590Z,48.15
2023-02-11T23:39:04.994Z,47.47
2023-02-11T23:41:31.890Z,48.00
2023-02-11T23:43:58.795Z,47.53
2023-02-11T23:46:26.950Z,48.17
2023-02-11T23:48:55.811Z,47.63
2023-02-11T23:51:24.131Z,47.92
2023-02-11T23:53:51.633Z,47.30
2023-02-11T23:56:21.108Z,47.50
2023-02-11T23:58:48.684Z,47.72
